createdAt,value
2019-04-06T00:15:54.030Z,17.00
2019-04-06T00:30:56.316Z,18.10
2019-04-06T00:45:54.409Z,18.80
2019-04-06T01:00:59.730Z,17.57
2019-04-06T01:15:53.983Z,18.60
2019-04-06T01:30:50.926Z,19.52
2019-04-06T01:45:51.541Z,19.25
2019-04-06T02:16:00.264Z,20.05
2019-04-06T02:45:51.351Z,20.77
2019-04-06T03:00:52.052Z,20.35
2019-04-06T03:15:50.683Z,19.05
2019-04-06T03:45:54.182Z,20.77
2019-04-06T04:00:51.199Z,20.32
2019-04-06T04:15:50.600Z,20.65
2019-04-06T04:30:51.392Z,20.60
2019-04-06T04:45:51.366Z,20.60
2019-04-06T05:00:51.384Z,20.00
2019-04-06T05:30:56.674Z,22.82
2019-04-06T05:45:52.623Z,19.73
2019-04-06T06:00:52.981Z,21.50
2019-04-06T06:15:50.875Z,20.30
2019-04-06T06:30:50.933Z,22.05
2019-04-06T06:45:50.816Z,21.73
2019-04-06T07:00:51.690Z,22.60
2019-04-06T07:15:51.179Z,20.35
2019-04-06T07:30:51.247Z,20.12
2019-04-06T07:45:50.731Z,21.20
2019-04-06T08:00:54.554Z,21.42
2019-04-06T08:15:54.405Z,20.85
2019-04-06T08:30:51.332Z,20.85
2019-04-06T08:45:51.307Z,20.55
2019-04-06T09:00:51.281Z,22.05
2019-04-06T09:15:51.192Z,21.65
2019-04-06T09:30:51.054Z,20.08
2019-04-06T09:45:52.768Z,20.88
2019-04-06T10:00:58.838Z,20.70
2019-04-06T11:00:58.446Z,17.52
2019-04-06T11:15:58.462Z,17.70
2019-04-06T11:30:55.612Z,15.32
2019-04-06T11:46:00.399Z,18.50
2019-04-06T12:15:55.556Z,15.35
2019-04-06T13:31:03.729Z,14.87
2019-04-06T14:00:52.661Z,17.35
2019-04-06T14:45:52.294Z,19.07
2019-04-06T15:30:52.921Z,18.02
2019-04-06T15:45:55.320Z,16.75
2019-04-06T16:45:52.745Z,22.55
2019-04-06T17:00:57.146Z,23.35
2019-04-06T17:30:54.758Z,20.52
2019-04-06T17:45:53.174Z,21.52
2019-04-06T18:00:53.081Z,21.68
2019-04-06T18:15:57.296Z,21.05
2019-04-06T18:30:52.334Z,20.48
2019-04-06T18:45:50.617Z,21.80
2019-04-06T19:00:50.769Z,21.90
2019-04-06T19:15:51.426Z,20.85
2019-04-06T19:30:50.992Z,21.10
2019-04-06T19:45:51.261Z,20.30
2019-04-06T20:00:50.796Z,19.98
2019-04-06T20:15:50.778Z,21.10
2019-04-06T20:30:58.025Z,20.48
2019-04-06T20:45:51.029Z,21.07
2019-04-06T21:00:50.605Z,19.95
2019-04-06T21:15:51.639Z,18.57
2019-04-06T21:30:51.484Z,19.42
2019-04-06T21:45:51.138Z,20.15
2019-04-06T22:00:53.580Z,20.23
2019-04-06T22:15:50.794Z,19.82
2019-04-06T22:30:54.141Z,19.77
2019-04-06T22:45:50.688Z,20.05
2019-04-06T23:15:50.901Z,20.05
2019-04-06T23:30:50.434Z,20.35
2019-04-06T23:45:57.117Z,19.20
